sensor_id;sensor_type;location;lat;lon;timestamp;temperature;humidity
64685;DHT22;51109;47.414;18.954;2023-07-24T00:00:54;21.80;99.90
64685;DHT22;51109;47.414;18.954;2023-07-24T00:03:20;21.70;99.90
64685;DHT22;51109;47.414;18.954;2023-07-24T00:05:46;21.70;99.90
64685;DHT22;51109;47.414;18.954;2023-07-24T00:08:12;22.20;99.90
64685;DHT22;51109;47.414;18.954;2023-07-24T00:10:39;21.70;99.90
64685;DHT22;51109;47.414;18.954;2023-07-24T00:13:04;21.70;99.90
64685;DHT22;51109;47.414;18.954;2023-07-24T00:15:30;21.70;99.90
64685;DHT22;51109;47.414;18.954;2023-07-24T00:17:56;21.80;99.90
64685;DHT22;51109;47.414;18.954;2023-07-24T00:20:22;21.80;99.90
64685;DHT22;51109;47.414;18.954;2023-07-24T00:22:50;21.70;99.90
64685;DHT22;51109;47.414;18.954;2023-07-24T00:25:16;21.70;99.90
64685;DHT22;51109;47.414;18.954;2023-07-24T00:27:42;21.80;99.90
64685;DHT22;51109;47.414;18.954;2023-07-24T00:30:08;21.80;99.90
64685;DHT22;51109;47.414;18.954;2023-07-24T00:32:35;21.80;99.90
64685;DHT22;51109;47.414;18.954;2023-07-24T00:35:01;21.70;99.90
64685;DHT22;51109;47.414;18.954;2023-07-24T00:37:27;21.70;99.90
64685;DHT22;51109;47.414;18.954;2023-07-24T00:39:53;21.60;99.90
64685;DHT22;51109;47.414;18.954;2023-07-24T00:42:19;21.40;99.90
64685;DHT22;51109;47.414;18.954;2023-07-24T00:44:45;21.30;99.90
64685;DHT22;51109;47.414;18.954;2023-07-24T00:47:11;21.20;99.90
64685;DHT22;51109;47.414;18.954;2023-07-24T00:49:37;21.20;99.90
64685;DHT22;51109;47.414;18.954;2023-07-24T00:52:04;21.30;99.90
64685;DHT22;51109;47.414;18.954;2023-07-24T00:54:31;21.30;99.90
64685;DHT22;51109;47.414;18.954;2023-07-24T00:56:58;21.30;99.90
64685;DHT22;51109;47.414;18.954;2023-07-24T00:59:24;21.30;99.90
64685;DHT22;51109;47.414;18.954;2023-07-24T01:01:50;21.30;99.90
64685;DHT22;51109;47.414;18.954;2023-07-24T01:04:16;21.40;99.90
64685;DHT22;51109;47.414;18.954;2023-07-24T01:06:43;21.30;99.90
64685;DHT22;51109;47.414;18.954;2023-07-24T01:09:09;21.30;99.90
64685;DHT22;51109;47.414;18.954;2023-07-24T01:11:39;21.20;99.90
64685;DHT22;51109;47.414;18.954;2023-07-24T01:14:21;21.10;99.90
64685;DHT22;51109;47.414;18.954;2023-07-24T01:16:49;21.00;99.90
64685;DHT22;51109;47.414;18.954;2023-07-24T01:19:58;20.90;99.90
64685;DHT22;51109;47.414;18.954;2023-07-24T01:22:32;20.90;99.90
64685;DHT22;51109;47.414;18.954;2023-07-24T01:25:23;20.80;99.90
64685;DHT22;51109;47.414;18.954;2023-07-24T01:27:52;20.60;99.90
64685;DHT22;51109;47.414;18.954;2023-07-24T01:30:19;20.50;99.90
64685;DHT22;51109;47.414;18.954;2023-07-24T01:32:45;20.50;99.90
64685;DHT22;51109;47.414;18.954;2023-07-24T01:35:12;20.50;99.90
64685;DHT22;51109;47.414;18.954;2023-07-24T01:37:38;20.50;99.90
64685;DHT22;51109;47.414;18.954;2023-07-24T01:40:10;20.40;99.90
64685;DHT22;51109;47.414;18.954;2023-07-24T01:42:36;20.50;99.90
64685;DHT22;51109;47.414;18.954;2023-07-24T01:45:04;20.40;99.90
64685;DHT22;51109;47.414;18.954;2023-07-24T01:47:30;20.50;99.90
64685;DHT22;51109;47.414;18.954;2023-07-24T01:49:56;20.40;99.90
64685;DHT22;51109;47.414;18.954;2023-07-24T01:52:22;20.30;99.90
64685;DHT22;51109;47.414;18.954;2023-07-24T01:54:48;20.40;99.90
64685;DHT22;51109;47.414;18.954;2023-07-24T01:57:14;20.30;99.90
64685;DHT22;51109;47.414;18.954;2023-07-24T01:59:40;20.20;99.90
64685;DHT22;51109;47.414;18.954;2023-07-24T02:02:06;20.20;99.90
64685;DHT22;51109;47.414;18.954;2023-07-24T02:04:32;20.20;99.90
64685;DHT22;51109;47.414;18.954;2023-07-24T02:06:58;20.20;99.90
64685;DHT22;51109;47.414;18.954;2023-07-24T02:09:24;20.30;99.90
64685;DHT22;51109;47.414;18.954;2023-07-24T02:11:50;20.40;99.90
64685;DHT22;51109;47.414;18.954;2023-07-24T02:14:18;20.30;99.90
64685;DHT22;51109;47.414;18.954;2023-07-24T02:16:44;20.40;99.90
64685;DHT22;51109;47.414;18.954;2023-07-24T02:19:10;20.50;99.90
64685;DHT22;51109;47.414;18.954;2023-07-24T02:21:36;20.60;99.90
64685;DHT22;51109;47.414;18.954;2023-07-24T02:24:02;20.60;99.90
64685;DHT22;51109;47.414;18.954;2023-07-24T02:26:28;20.60;99.90
64685;DHT22;51109;47.414;18.954;2023-07-24T02:28:54;20.60;99.90
64685;DHT22;51109;47.414;18.954;2023-07-24T02:31:20;20.60;99.90
64685;DHT22;51109;47.414;18.954;2023-07-24T02:33:46;20.60;99.90
64685;DHT22;51109;47.414;18.954;2023-07-24T02:36:12;20.70;99.90
64685;DHT22;51109;47.414;18.954;2023-07-24T02:38:37;20.70;99.90
64685;DHT22;51109;47.414;18.954;2023-07-24T02:41:03;20.80;99.90
64685;DHT22;51109;47.414;18.954;2023-07-24T02:43:29;20.80;99.90
64685;DHT22;51109;47.414;18.954;2023-07-24T02:46:00;20.80;99.90
64685;DHT22;51109;47.414;18.954;2023-07-24T02:48:26;20.80;99.90
64685;DHT22;51109;47.414;18.954;2023-07-24T02:50:52;20.70;99.90
64685;DHT22;51109;47.414;18.954;2023-07-24T02:53:18;20.70;99.90
64685;DHT22;51109;47.414;18.954;2023-07-24T02:55:44;20.60;99.90
64685;DHT22;51109;47.414;18.954;2023-07-24T02:58:13;20.60;99.90
64685;DHT22;51109;47.414;18.954;2023-07-24T03:00:40;20.40;99.90
64685;DHT22;51109;47.414;18.954;2023-07-24T03:03:06;20.30;99.90
64685;DHT22;51109;47.414;18.954;2023-07-24T03:05:34;20.20;99.90
64685;DHT22;51109;47.414;18.954;2023-07-24T03:08:00;20.20;99.90
64685;DHT22;51109;47.414;18.954;2023-07-24T03:10:26;19.80;99.90
64685;DHT22;51109;47.414;18.954;2023-07-24T03:12:52;20.00;99.90
64685;DHT22;51109;47.414;18.954;2023-07-24T03:15:18;20.00;99.90
64685;DHT22;51109;47.414;18.954;2023-07-24T03:17:44;19.90;99.90
64685;DHT22;51109;47.414;18.954;2023-07-24T03:20:16;19.70;99.90
64685;DHT22;51109;47.414;18.954;2023-07-24T03:22:43;19.80;99.90
64685;DHT22;51109;47.414;18.954;2023-07-24T03:25:09;19.80;99.90
64685;DHT22;51109;47.414;18.954;2023-07-24T03:27:35;19.70;99.90
64685;DHT22;51109;47.414;18.954;2023-07-24T03:30:01;19.70;99.90
64685;DHT22;51109;47.414;18.954;2023-07-24T03:32:27;19.80;99.90
64685;DHT22;51109;47.414;18.954;2023-07-24T03:34:52;19.80;99.90
64685;DHT22;51109;47.414;18.954;2023-07-24T03:37:19;19.80;99.90
64685;DHT22;51109;47.414;18.954;2023-07-24T03:39:45;19.80;99.90
64685;DHT22;51109;47.414;18.954;2023-07-24T03:42:11;19.90;99.90
64685;DHT22;51109;47.414;18.954;2023-07-24T03:44:40;19.90;99.90
64685;DHT22;51109;47.414;18.954;2023-07-24T03:47:06;19.80;99.90
64685;DHT22;51109;47.414;18.954;2023-07-24T03:49:33;19.90;99.90
64685;DHT22;51109;47.414;18.954;2023-07-24T03:51:59;19.90;99.90
64685;DHT22;51109;47.414;18.954;2023-07-24T03:54:25;19.90;99.90
64685;DHT22;51109;47.414;18.954;2023-07-24T03:56:51;20.00;99.90
64685;DHT22;51109;47.414;18.954;2023-07-24T03:59:17;20.00;99.90
64685;DHT22;51109;47.414;18.954;2023-07-24T04:01:43;20.10;99.90
64685;DHT22;51109;47.414;18.954;2023-07-24T04:04:09;20.20;99.90
64685;DHT22;51109;47.414;18.954;2023-07-24T04:06:35;20.10;99.90
64685;DHT22;51109;47.414;18.954;2023-07-24T04:09:00;20.20;99.90
64685;DHT22;51109;47.414;18.954;2023-07-24T04:11:26;20.20;99.90
64685;DHT22;51109;47.414;18.954;2023-07-24T04:13:52;20.20;99.90
64685;DHT22;51109;47.414;18.954;2023-07-24T04:16:18;20.30;99.90
64685;DHT22;51109;47.414;18.954;2023-07-24T04:18:44;20.30;99.90
64685;DHT22;51109;47.414;18.954;2023-07-24T04:21:10;20.50;99.90
64685;DHT22;51109;47.414;18.954;2023-07-24T04:23:36;20.60;99.90
64685;DHT22;51109;47.414;18.954;2023-07-24T04:26:02;20.60;99.90
64685;DHT22;51109;47.414;18.954;2023-07-24T04:28:28;20.70;99.90
64685;DHT22;51109;47.414;18.954;2023-07-24T04:30:54;20.70;99.90
64685;DHT22;51109;47.414;18.954;2023-07-24T04:33:20;20.90;99.90
64685;DHT22;51109;47.414;18.954;2023-07-24T04:35:49;20.90;99.90
64685;DHT22;51109;47.414;18.954;2023-07-24T04:38:15;20.90;99.90
64685;DHT22;51109;47.414;18.954;2023-07-24T04:40:44;21.00;99.90
64685;DHT22;51109;47.414;18.954;2023-07-24T04:43:10;21.00;99.90
64685;DHT22;51109;47.414;18.954;2023-07-24T04:45:36;21.10;99.90
64685;DHT22;51109;47.414;18.954;2023-07-24T04:48:02;21.10;99.90
64685;DHT22;51109;47.414;18.954;2023-07-24T04:50:28;21.20;99.90
64685;DHT22;51109;47.414;18.954;2023-07-24T04:52:55;21.30;99.90
64685;DHT22;51109;47.414;18.954;2023-07-24T04:55:21;21.40;99.90
64685;DHT22;51109;47.414;18.954;2023-07-24T04:57:48;21.50;99.90
64685;DHT22;51109;47.414;18.954;2023-07-24T05:00:14;21.50;99.90
64685;DHT22;51109;47.414;18.954;2023-07-24T05:02:40;21.70;99.90
64685;DHT22;51109;47.414;18.954;2023-07-24T05:05:06;21.70;99.90
64685;DHT22;51109;47.414;18.954;2023-07-24T05:07:32;21.80;99.90
64685;DHT22;51109;47.414;18.954;2023-07-24T05:09:59;21.90;99.90
64685;DHT22;51109;47.414;18.954;2023-07-24T05:12:25;22.00;99.90
64685;DHT22;51109;47.414;18.954;2023-07-24T05:14:51;22.10;99.90
64685;DHT22;51109;47.414;18.954;2023-07-24T05:17:17;22.20;99.90
64685;DHT22;51109;47.414;18.954;2023-07-24T05:19:43;22.30;99.90
64685;DHT22;51109;47.414;18.954;2023-07-24T05:22:09;22.40;99.90
64685;DHT22;51109;47.414;18.954;2023-07-24T05:24:36;22.50;99.90
64685;DHT22;51109;47.414;18.954;2023-07-24T05:27:04;22.70;99.90
64685;DHT22;51109;47.414;18.954;2023-07-24T05:29:30;22.80;99.90
64685;DHT22;51109;47.414;18.954;2023-07-24T05:31:56;22.80;99.90
64685;DHT22;51109;47.414;18.954;2023-07-24T05:34:22;22.90;99.90
64685;DHT22;51109;47.414;18.954;2023-07-24T05:36:47;23.10;99.90
64685;DHT22;51109;47.414;18.954;2023-07-24T05:39:13;23.10;99.90
64685;DHT22;51109;47.414;18.954;2023-07-24T05:41:39;23.20;99.90
64685;DHT22;51109;47.414;18.954;2023-07-24T05:44:05;23.30;99.90
64685;DHT22;51109;47.414;18.954;2023-07-24T05:46:31;23.40;99.90
64685;DHT22;51109;47.414;18.954;2023-07-24T05:48:57;23.60;99.90
64685;DHT22;51109;47.414;18.954;2023-07-24T05:51:24;23.70;99.90
64685;DHT22;51109;47.414;18.954;2023-07-24T05:53:50;23.70;99.90
64685;DHT22;51109;47.414;18.954;2023-07-24T05:56:16;23.80;99.90
64685;DHT22;51109;47.414;18.954;2023-07-24T05:58:42;24.00;99.90
64685;DHT22;51109;47.414;18.954;2023-07-24T06:01:08;23.90;99.90
64685;DHT22;51109;47.414;18.954;2023-07-24T06:03:36;24.10;99.90
64685;DHT22;51109;47.414;18.954;2023-07-24T06:06:02;24.10;99.90
64685;DHT22;51109;47.414;18.954;2023-07-24T06:08:28;24.20;99.90
64685;DHT22;51109;47.414;18.954;2023-07-24T06:10:54;24.20;99.90
64685;DHT22;51109;47.414;18.954;2023-07-24T06:13:20;24.30;99.90
64685;DHT22;51109;47.414;18.954;2023-07-24T06:15:50;24.40;99.90
64685;DHT22;51109;47.414;18.954;2023-07-24T06:18:16;24.60;99.90
64685;DHT22;51109;47.414;18.954;2023-07-24T06:20:42;24.70;99.90
64685;DHT22;51109;47.414;18.954;2023-07-24T06:23:08;24.90;99.90
64685;DHT22;51109;47.414;18.954;2023-07-24T06:25:34;24.80;99.90
64685;DHT22;51109;47.414;18.954;2023-07-24T06:28:00;24.50;99.90
64685;DHT22;51109;47.414;18.954;2023-07-24T06:30:26;24.60;99.90
64685;DHT22;51109;47.414;18.954;2023-07-24T06:32:52;24.80;99.90
64685;DHT22;51109;47.414;18.954;2023-07-24T06:35:18;24.80;99.90
64685;DHT22;51109;47.414;18.954;2023-07-24T06:37:44;24.80;99.90
64685;DHT22;51109;47.414;18.954;2023-07-24T06:40:11;25.00;99.90
64685;DHT22;51109;47.414;18.954;2023-07-24T06:42:37;25.10;99.90
64685;DHT22;51109;47.414;18.954;2023-07-24T06:45:03;25.20;99.90
64685;DHT22;51109;47.414;18.954;2023-07-24T06:47:29;25.10;99.90
64685;DHT22;51109;47.414;18.954;2023-07-24T06:49:55;25.10;99.90
64685;DHT22;51109;47.414;18.954;2023-07-24T06:52:21;25.10;99.90
64685;DHT22;51109;47.414;18.954;2023-07-24T06:54:47;25.10;99.90
64685;DHT22;51109;47.414;18.954;2023-07-24T06:57:13;25.20;99.90
64685;DHT22;51109;47.414;18.954;2023-07-24T06:59:39;25.40;99.90
64685;DHT22;51109;47.414;18.954;2023-07-24T07:02:05;25.50;99.90
64685;DHT22;51109;47.414;18.954;2023-07-24T07:04:31;25.70;99.90
64685;DHT22;51109;47.414;18.954;2023-07-24T07:06:57;25.80;99.90
64685;DHT22;51109;47.414;18.954;2023-07-24T07:09:23;26.00;99.90
64685;DHT22;51109;47.414;18.954;2023-07-24T07:11:49;26.10;99.90
64685;DHT22;51109;47.414;18.954;2023-07-24T07:14:15;26.40;99.90
64685;DHT22;51109;47.414;18.954;2023-07-24T07:16:41;26.60;99.90
64685;DHT22;51109;47.414;18.954;2023-07-24T07:19:07;26.70;99.90
64685;DHT22;51109;47.414;18.954;2023-07-24T07:21:35;26.70;99.90
64685;DHT22;51109;47.414;18.954;2023-07-24T07:24:01;26.70;99.90
64685;DHT22;51109;47.414;18.954;2023-07-24T07:26:27;26.70;99.90
64685;DHT22;51109;47.414;18.954;2023-07-24T07:28:55;26.70;99.90
64685;DHT22;51109;47.414;18.954;2023-07-24T07:31:21;26.90;99.90
64685;DHT22;51109;47.414;18.954;2023-07-24T07:33:47;26.90;99.90
64685;DHT22;51109;47.414;18.954;2023-07-24T07:36:14;27.10;99.90
64685;DHT22;51109;47.414;18.954;2023-07-24T07:38:40;27.30;99.90
64685;DHT22;51109;47.414;18.954;2023-07-24T07:41:06;27.40;99.90
64685;DHT22;51109;47.414;18.954;2023-07-24T07:43:32;27.40;99.90
64685;DHT22;51109;47.414;18.954;2023-07-24T07:45:58;27.40;99.90
64685;DHT22;51109;47.414;18.954;2023-07-24T07:48:25;27.40;99.90
64685;DHT22;51109;47.414;18.954;2023-07-24T07:50:51;27.50;99.90
64685;DHT22;51109;47.414;18.954;2023-07-24T07:53:17;27.60;99.90
64685;DHT22;51109;47.414;18.954;2023-07-24T07:55:43;27.70;99.90
64685;DHT22;51109;47.414;18.954;2023-07-24T07:58:09;28.00;99.90
64685;DHT22;51109;47.414;18.954;2023-07-24T08:00:35;28.00;99.90
64685;DHT22;51109;47.414;18.954;2023-07-24T08:03:01;28.10;99.90
64685;DHT22;51109;47.414;18.954;2023-07-24T08:05:27;28.20;99.90
64685;DHT22;51109;47.414;18.954;2023-07-24T08:07:53;28.20;99.90
64685;DHT22;51109;47.414;18.954;2023-07-24T08:10:19;28.10;99.90
64685;DHT22;51109;47.414;18.954;2023-07-24T08:12:45;28.20;99.90
64685;DHT22;51109;47.414;18.954;2023-07-24T08:15:11;28.40;99.90
64685;DHT22;51109;47.414;18.954;2023-07-24T08:17:37;28.40;99.90
64685;DHT22;51109;47.414;18.954;2023-07-24T08:20:04;28.50;99.90
64685;DHT22;51109;47.414;18.954;2023-07-24T08:22:30;28.50;99.90
64685;DHT22;51109;47.414;18.954;2023-07-24T08:24:56;28.60;99.90
64685;DHT22;51109;47.414;18.954;2023-07-24T08:27:22;28.60;99.90
64685;DHT22;51109;47.414;18.954;2023-07-24T08:29:51;28.70;99.90
64685;DHT22;51109;47.414;18.954;2023-07-24T08:32:18;28.60;99.90
64685;DHT22;51109;47.414;18.954;2023-07-24T08:34:44;28.80;99.90
64685;DHT22;51109;47.414;18.954;2023-07-24T08:37:13;29.00;99.90
64685;DHT22;51109;47.414;18.954;2023-07-24T08:39:39;28.90;99.90
64685;DHT22;51109;47.414;18.954;2023-07-24T08:42:12;28.90;99.90
64685;DHT22;51109;47.414;18.954;2023-07-24T08:44:38;29.00;99.90
64685;DHT22;51109;47.414;18.954;2023-07-24T08:47:04;29.10;99.90
64685;DHT22;51109;47.414;18.954;2023-07-24T08:49:32;29.10;99.90
64685;DHT22;51109;47.414;18.954;2023-07-24T08:51:59;29.10;99.90
64685;DHT22;51109;47.414;18.954;2023-07-24T08:54:26;29.20;99.90
64685;DHT22;51109;47.414;18.954;2023-07-24T08:56:53;29.20;99.90
64685;DHT22;51109;47.414;18.954;2023-07-24T08:59:19;29.50;99.90
64685;DHT22;51109;47.414;18.954;2023-07-24T09:01:45;29.50;99.90
64685;DHT22;51109;47.414;18.954;2023-07-24T09:04:11;29.50;99.90
64685;DHT22;51109;47.414;18.954;2023-07-24T09:06:37;29.60;99.90
64685;DHT22;51109;47.414;18.954;2023-07-24T09:09:12;29.70;99.90
64685;DHT22;51109;47.414;18.954;2023-07-24T09:11:52;29.70;99.90
64685;DHT22;51109;47.414;18.954;2023-07-24T09:14:25;29.80;99.90
64685;DHT22;51109;47.414;18.954;2023-07-24T09:17:09;29.90;99.90
64685;DHT22;51109;47.414;18.954;2023-07-24T09:19:36;29.90;99.90
64685;DHT22;51109;47.414;18.954;2023-07-24T09:22:15;29.90;99.90
64685;DHT22;51109;47.414;18.954;2023-07-24T09:24:51;29.90;99.90
64685;DHT22;51109;47.414;18.954;2023-07-24T09:27:17;30.00;99.90
64685;DHT22;51109;47.414;18.954;2023-07-24T09:29:44;30.10;99.90
64685;DHT22;51109;47.414;18.954;2023-07-24T09:32:24;30.20;99.90
64685;DHT22;51109;47.414;18.954;2023-07-24T09:34:51;30.30;99.90
64685;DHT22;51109;47.414;18.954;2023-07-24T09:39:49;30.50;99.90
64685;DHT22;51109;47.414;18.954;2023-07-24T09:42:15;30.50;99.90
64685;DHT22;51109;47.414;18.954;2023-07-24T09:44:41;30.70;99.90
64685;DHT22;51109;47.414;18.954;2023-07-24T09:47:07;30.80;99.90
64685;DHT22;51109;47.414;18.954;2023-07-24T09:49:33;30.60;99.90
64685;DHT22;51109;47.414;18.954;2023-07-24T09:51:59;30.70;99.90
64685;DHT22;51109;47.414;18.954;2023-07-24T09:54:34;30.70;99.90
64685;DHT22;51109;47.414;18.954;2023-07-24T09:57:08;30.90;99.90
64685;DHT22;51109;47.414;18.954;2023-07-24T09:59:34;31.00;99.90
64685;DHT22;51109;47.414;18.954;2023-07-24T10:02:01;31.10;99.90
64685;DHT22;51109;47.414;18.954;2023-07-24T10:04:28;31.10;99.90
64685;DHT22;51109;47.414;18.954;2023-07-24T10:06:55;31.10;99.90
64685;DHT22;51109;47.414;18.954;2023-07-24T10:09:21;31.20;99.90
64685;DHT22;51109;47.414;18.954;2023-07-24T10:11:49;31.30;99.90
64685;DHT22;51109;47.414;18.954;2023-07-24T10:14:15;31.30;99.90
64685;DHT22;51109;47.414;18.954;2023-07-24T10:16:42;31.50;99.90
64685;DHT22;51109;47.414;18.954;2023-07-24T10:19:15;31.30;99.90
64685;DHT22;51109;47.414;18.954;2023-07-24T10:21:50;31.30;99.90
64685;DHT22;51109;47.414;18.954;2023-07-24T10:24:16;31.60;99.90
64685;DHT22;51109;47.414;18.954;2023-07-24T10:26:42;31.70;99.90
64685;DHT22;51109;47.414;18.954;2023-07-24T10:29:09;31.80;99.90
64685;DHT22;51109;47.414;18.954;2023-07-24T10:31:35;31.80;99.90
64685;DHT22;51109;47.414;18.954;2023-07-24T10:34:05;31.90;99.90
64685;DHT22;51109;47.414;18.954;2023-07-24T10:36:36;31.80;99.90
64685;DHT22;51109;47.414;18.954;2023-07-24T10:39:02;32.00;99.90
64685;DHT22;51109;47.414;18.954;2023-07-24T10:41:36;32.10;99.90
64685;DHT22;51109;47.414;18.954;2023-07-24T10:44:02;31.80;99.90
64685;DHT22;51109;47.414;18.954;2023-07-24T10:46:39;31.70;99.90
64685;DHT22;51109;47.414;18.954;2023-07-24T10:49:06;31.60;99.90
64685;DHT22;51109;47.414;18.954;2023-07-24T10:51:32;31.70;99.90
64685;DHT22;51109;47.414;18.954;2023-07-24T10:54:01;31.90;99.90
64685;DHT22;51109;47.414;18.954;2023-07-24T10:56:27;32.00;99.90
64685;DHT22;51109;47.414;18.954;2023-07-24T10:58:53;32.00;99.90
64685;DHT22;51109;47.414;18.954;2023-07-24T11:01:19;32.00;99.90
64685;DHT22;51109;47.414;18.954;2023-07-24T11:03:46;32.30;99.90
64685;DHT22;51109;47.414;18.954;2023-07-24T11:06:16;32.30;99.90
64685;DHT22;51109;47.414;18.954;2023-07-24T11:08:53;32.40;99.90
64685;DHT22;51109;47.414;18.954;2023-07-24T11:11:27;32.40;99.90
64685;DHT22;51109;47.414;18.954;2023-07-24T11:13:53;32.40;99.90
64685;DHT22;51109;47.414;18.954;2023-07-24T11:16:19;32.40;99.90
64685;DHT22;51109;47.414;18.954;2023-07-24T11:18:49;32.30;99.90
64685;DHT22;51109;47.414;18.954;2023-07-24T11:21:15;32.20;99.90
64685;DHT22;51109;47.414;18.954;2023-07-24T11:23:50;32.30;99.90
64685;DHT22;51109;47.414;18.954;2023-07-24T11:26:24;32.50;99.90
64685;DHT22;51109;47.414;18.954;2023-07-24T11:28:51;32.50;99.90
64685;DHT22;51109;47.414;18.954;2023-07-24T11:31:18;32.50;99.90
64685;DHT22;51109;47.414;18.954;2023-07-24T11:33:47;32.50;99.90
64685;DHT22;51109;47.414;18.954;2023-07-24T11:36:13;32.50;99.90
64685;DHT22;51109;47.414;18.954;2023-07-24T11:38:40;32.70;99.90
64685;DHT22;51109;47.414;18.954;2023-07-24T11:41:08;32.80;99.90
64685;DHT22;51109;47.414;18.954;2023-07-24T11:43:34;32.70;99.90
64685;DHT22;51109;47.414;18.954;2023-07-24T11:46:00;32.80;99.90
64685;DHT22;51109;47.414;18.954;2023-07-24T11:48:26;32.80;99.90
64685;DHT22;51109;47.414;18.954;2023-07-24T11:50:54;32.80;99.90
64685;DHT22;51109;47.414;18.954;2023-07-24T11:53:30;32.80;99.90
64685;DHT22;51109;47.414;18.954;2023-07-24T11:56:00;32.80;99.90
64685;DHT22;51109;47.414;18.954;2023-07-24T11:58:29;32.70;99.90
64685;DHT22;51109;47.414;18.954;2023-07-24T12:00:56;32.80;99.90
64685;DHT22;51109;47.414;18.954;2023-07-24T12:03:24;33.00;99.90
64685;DHT22;51109;47.414;18.954;2023-07-24T12:05:51;33.10;99.90
64685;DHT22;51109;47.414;18.954;2023-07-24T12:08:19;33.00;99.90
64685;DHT22;51109;47.414;18.954;2023-07-24T12:10:45;32.90;99.90
64685;DHT22;51109;47.414;18.954;2023-07-24T12:13:12;33.00;99.90
64685;DHT22;51109;47.414;18.954;2023-07-24T12:15:38;33.00;99.90
64685;DHT22;51109;47.414;18.954;2023-07-24T12:18:05;33.10;99.90
64685;DHT22;51109;47.414;18.954;2023-07-24T12:20:31;33.20;99.90
64685;DHT22;51109;47.414;18.954;2023-07-24T12:22:57;33.60;99.90
64685;DHT22;51109;47.414;18.954;2023-07-24T12:25:24;33.30;99.90
64685;DHT22;51109;47.414;18.954;2023-07-24T12:27:50;33.30;99.90
64685;DHT22;51109;47.414;18.954;2023-07-24T12:30:16;33.20;99.90
64685;DHT22;51109;47.414;18.954;2023-07-24T12:32:42;33.40;99.90
64685;DHT22;51109;47.414;18.954;2023-07-24T12:35:09;33.30;99.90
64685;DHT22;51109;47.414;18.954;2023-07-24T12:37:35;33.00;99.90
64685;DHT22;51109;47.414;18.954;2023-07-24T12:40:02;32.90;99.90
64685;DHT22;51109;47.414;18.954;2023-07-24T12:42:28;33.30;99.90
64685;DHT22;51109;47.414;18.954;2023-07-24T12:44:54;33.00;99.90
64685;DHT22;51109;47.414;18.954;2023-07-24T12:47:20;33.10;99.90
64685;DHT22;51109;47.414;18.954;2023-07-24T12:49:46;33.40;99.90
64685;DHT22;51109;47.414;18.954;2023-07-24T12:52:12;33.20;99.90
64685;DHT22;51109;47.414;18.954;2023-07-24T12:54:38;33.10;99.90
64685;DHT22;51109;47.414;18.954;2023-07-24T12:57:04;33.30;99.90
64685;DHT22;51109;47.414;18.954;2023-07-24T12:59:30;33.40;99.90
64685;DHT22;51109;47.414;18.954;2023-07-24T13:01:56;33.40;99.90
64685;DHT22;51109;47.414;18.954;2023-07-24T13:04:23;33.20;99.90
64685;DHT22;51109;47.414;18.954;2023-07-24T13:06:49;33.20;99.90
64685;DHT22;51109;47.414;18.954;2023-07-24T13:09:15;33.60;99.90
64685;DHT22;51109;47.414;18.954;2023-07-24T13:11:41;33.70;99.90
64685;DHT22;51109;47.414;18.954;2023-07-24T13:14:07;33.60;99.90
64685;DHT22;51109;47.414;18.954;2023-07-24T13:16:33;33.50;99.90
64685;DHT22;51109;47.414;18.954;2023-07-24T13:18:59;33.70;99.90
64685;DHT22;51109;47.414;18.954;2023-07-24T13:21:25;33.70;99.90
64685;DHT22;51109;47.414;18.954;2023-07-24T13:23:51;33.60;99.90
64685;DHT22;51109;47.414;18.954;2023-07-24T13:26:17;33.50;99.90
64685;DHT22;51109;47.414;18.954;2023-07-24T13:28:43;33.60;99.90
64685;DHT22;51109;47.414;18.954;2023-07-24T13:31:16;33.80;99.90
64685;DHT22;51109;47.414;18.954;2023-07-24T13:33:42;33.80;99.90
64685;DHT22;51109;47.414;18.954;2023-07-24T13:36:08;34.10;99.90
64685;DHT22;51109;47.414;18.954;2023-07-24T13:38:35;34.20;99.90
64685;DHT22;51109;47.414;18.954;2023-07-24T13:41:01;34.30;99.90
64685;DHT22;51109;47.414;18.954;2023-07-24T13:43:29;34.30;99.90
64685;DHT22;51109;47.414;18.954;2023-07-24T13:45:55;34.40;99.90
64685;DHT22;51109;47.414;18.954;2023-07-24T13:48:21;34.60;99.90
64685;DHT22;51109;47.414;18.954;2023-07-24T13:50:48;34.50;99.90
64685;DHT22;51109;47.414;18.954;2023-07-24T13:53:15;34.40;99.90
64685;DHT22;51109;47.414;18.954;2023-07-24T13:55:41;34.20;99.90
64685;DHT22;51109;47.414;18.954;2023-07-24T13:58:07;34.20;99.90
64685;DHT22;51109;47.414;18.954;2023-07-24T14:00:33;34.20;99.90
64685;DHT22;51109;47.414;18.954;2023-07-24T14:02:59;34.10;99.90
64685;DHT22;51109;47.414;18.954;2023-07-24T14:05:24;33.80;99.90
64685;DHT22;51109;47.414;18.954;2023-07-24T14:07:50;33.60;99.90
64685;DHT22;51109;47.414;18.954;2023-07-24T14:10:16;33.50;99.90
64685;DHT22;51109;47.414;18.954;2023-07-24T14:12:42;33.50;99.90
64685;DHT22;51109;47.414;18.954;2023-07-24T14:15:09;33.70;99.90
64685;DHT22;51109;47.414;18.954;2023-07-24T14:17:35;33.80;99.90
64685;DHT22;51109;47.414;18.954;2023-07-24T14:20:04;33.80;99.90
64685;DHT22;51109;47.414;18.954;2023-07-24T14:22:30;33.70;99.90
64685;DHT22;51109;47.414;18.954;2023-07-24T14:24:56;33.90;99.90
64685;DHT22;51109;47.414;18.954;2023-07-24T14:27:22;34.00;99.90
64685;DHT22;51109;47.414;18.954;2023-07-24T14:29:48;33.80;99.90
64685;DHT22;51109;47.414;18.954;2023-07-24T14:32:14;33.70;99.90
64685;DHT22;51109;47.414;18.954;2023-07-24T14:34:41;33.30;99.90
64685;DHT22;51109;47.414;18.954;2023-07-24T14:37:07;33.10;99.90
64685;DHT22;51109;47.414;18.954;2023-07-24T14:39:34;33.20;99.90
64685;DHT22;51109;47.414;18.954;2023-07-24T14:42:00;33.10;99.90
64685;DHT22;51109;47.414;18.954;2023-07-24T14:44:26;32.90;99.90
64685;DHT22;51109;47.414;18.954;2023-07-24T14:46:52;32.80;99.90
64685;DHT22;51109;47.414;18.954;2023-07-24T14:49:17;32.60;99.90
64685;DHT22;51109;47.414;18.954;2023-07-24T14:51:44;32.60;99.90
64685;DHT22;51109;47.414;18.954;2023-07-24T14:54:11;32.60;99.90
64685;DHT22;51109;47.414;18.954;2023-07-24T14:56:37;32.40;99.90
64685;DHT22;51109;47.414;18.954;2023-07-24T14:59:03;32.40;99.90
64685;DHT22;51109;47.414;18.954;2023-07-24T15:01:28;32.20;99.90
64685;DHT22;51109;47.414;18.954;2023-07-24T15:03:56;32.30;99.90
64685;DHT22;51109;47.414;18.954;2023-07-24T15:06:22;32.40;99.90
64685;DHT22;51109;47.414;18.954;2023-07-24T15:08:49;32.40;99.90
64685;DHT22;51109;47.414;18.954;2023-07-24T15:11:22;32.40;99.90
64685;DHT22;51109;47.414;18.954;2023-07-24T15:13:49;32.20;99.90
64685;DHT22;51109;47.414;18.954;2023-07-24T15:16:15;32.10;99.90